SLL weather

Salalah Airport
Salalah, Dhofar Governorate, Oman

Public forecast

Using degrees Celsius for public forecast. Weather courtesy of forecast.io.

METAR (pilot weather report)

Retrieved 2019/04/25 08:50 UTC (42 minutes ago):

OOSA 250850Z 34009KT 300V010 8000 NSC 36/07 Q1013 NOSIG

TAF (pilot weather forecast)

Retrieved 2019/04/25 06:00 UTC (4 hours ago):

TAF OOSA 250546Z 2506/2612 34018KT 5000 DU NSC BECMG 2508/2510 12010KT 8000 TEMPO 2517/2520 VRB03KT BECMG 2521/2523 36012KT CAVOK BECMG 2606/2608 13012KT